createdAt,value
2019-04-27T00:00:10.475Z,98.50
2019-04-27T00:02:43.715Z,98.60
2019-04-27T00:05:26.595Z,98.50
2019-04-27T00:07:59.337Z,98.30
2019-04-27T00:10:29.650Z,98.20
2019-04-27T00:13:02.197Z,98.20
2019-04-27T00:15:45.883Z,98.10
2019-04-27T00:18:34.180Z,98.30
2019-04-27T00:21:07.735Z,98.60
2019-04-27T00:23:38.671Z,99.10
2019-04-27T00:28:36.007Z,99.30
2019-04-27T00:31:04.919Z,99.50
2019-04-27T00:33:33.988Z,99.50
2019-04-27T00:36:08.266Z,99.80
2019-04-27T00:38:55.592Z,99.90
2019-04-27T00:41:24.698Z,99.50
2019-04-27T00:43:53.505Z,99.40
2019-04-27T00:46:22.908Z,99.30
2019-04-27T00:48:53.283Z,99.50
2019-04-27T00:51:23.143Z,99.60
2019-04-27T00:53:53.543Z,99.80
2019-04-27T00:56:40.775Z,99.80
2019-04-27T00:59:11.423Z,99.80
2019-04-27T01:01:44.584Z,99.90
2019-04-27T01:04:17.827Z,99.90
2019-04-27T01:06:46.738Z,99.90
2019-04-27T01:09:16.055Z,99.90
2019-04-27T01:11:45.066Z,99.90
2019-04-27T01:14:14.000Z,99.90
2019-04-27T01:16:42.867Z,99.90
2019-04-27T01:19:11.684Z,99.90
2019-04-27T01:21:40.595Z,99.90
2019-04-27T01:24:09.400Z,99.90
2019-04-27T01:26:52.026Z,99.90
2019-04-27T01:29:22.463Z,99.90
2019-04-27T01:31:51.371Z,99.90
2019-04-27T01:34:20.363Z,99.90
2019-04-27T01:36:49.380Z,99.90
2019-04-27T01:39:18.974Z,99.90
2019-04-27T01:41:49.111Z,99.90
2019-04-27T01:44:19.433Z,99.90
2019-04-27T01:46:48.777Z,99.90
2019-04-27T01:49:19.399Z,99.90
2019-04-27T01:51:49.240Z,99.90
2019-04-27T01:54:19.934Z,99.90
2019-04-27T01:56:49.236Z,99.90
2019-04-27T01:59:19.789Z,99.90
2019-04-27T02:02:10.598Z,99.90
2019-04-27T02:04:41.457Z,99.90
2019-04-27T02:07:12.002Z,99.90
2019-04-27T02:09:41.013Z,99.90
2019-04-27T02:12:09.927Z,99.90
2019-04-27T02:14:39.053Z,99.90
2019-04-27T02:17:09.728Z,99.90
2019-04-27T02:19:39.277Z,99.90
2019-04-27T02:22:08.672Z,99.90
2019-04-27T02:24:39.038Z,99.90
2019-04-27T02:27:08.993Z,99.90
2019-04-27T02:29:48.746Z,99.90
2019-04-27T02:32:35.672Z,99.90
2019-04-27T02:35:06.325Z,99.90
2019-04-27T02:37:35.230Z,99.90
2019-04-27T02:40:05.825Z,99.90
2019-04-27T02:42:36.426Z,99.90
2019-04-27T02:45:06.484Z,99.90
2019-04-27T02:47:35.365Z,99.90
2019-04-27T02:50:04.731Z,99.90
2019-04-27T02:52:35.227Z,99.90
2019-04-27T02:55:05.360Z,99.90
2019-04-27T02:57:34.475Z,99.90
2019-04-27T03:00:03.495Z,99.90
2019-04-27T03:02:34.034Z,99.90
2019-04-27T03:05:02.934Z,99.90
2019-04-27T03:07:31.846Z,99.90
2019-04-27T03:10:02.284Z,99.90
2019-04-27T03:12:32.918Z,99.90
2019-04-27T03:15:15.770Z,99.90
2019-04-27T03:17:55.517Z,99.90
2019-04-27T03:20:34.965Z,99.90
2019-04-27T03:23:05.614Z,99.90
2019-04-27T03:25:36.057Z,99.90
2019-04-27T03:28:06.601Z,99.90
2019-04-27T03:30:36.486Z,99.90
2019-04-27T03:33:05.658Z,99.90
2019-04-27T03:35:37.352Z,99.90
2019-04-27T03:38:14.298Z,99.90
2019-04-27T03:40:43.305Z,99.90
2019-04-27T03:43:13.776Z,99.90
2019-04-27T03:45:42.675Z,99.90
2019-04-27T03:48:11.473Z,99.90
2019-04-27T03:50:44.380Z,99.90
2019-04-27T03:53:31.301Z,99.90
2019-04-27T03:56:20.010Z,99.90
2019-04-27T03:58:53.454Z,99.90
2019-04-27T04:01:22.390Z,99.90
2019-04-27T04:03:51.186Z,99.90
2019-04-27T04:06:20.070Z,99.90
2019-04-27T04:08:50.599Z,99.90
2019-04-27T04:11:21.497Z,99.90
2019-04-27T04:13:51.928Z,99.90
2019-04-27T04:16:31.180Z,99.90
2019-04-27T04:19:04.688Z,99.90
2019-04-27T04:21:33.605Z,99.90
2019-04-27T04:24:02.977Z,99.90
2019-04-27T04:26:32.688Z,99.90
2019-04-27T04:29:02.263Z,99.90
2019-04-27T04:31:33.211Z,99.90
2019-04-27T04:34:01.615Z,99.90
2019-04-27T04:36:30.450Z,99.90
2019-04-27T04:39:00.443Z,99.90
2019-04-27T04:41:31.305Z,99.90
2019-04-27T04:44:20.258Z,99.90
2019-04-27T04:47:00.394Z,99.90
2019-04-27T04:49:29.776Z,99.90
2019-04-27T04:51:59.401Z,99.90
2019-04-27T04:54:30.056Z,99.90
2019-04-27T04:56:59.481Z,99.90
2019-04-27T04:59:29.150Z,99.90
2019-04-27T05:02:00.305Z,99.90
2019-04-27T05:04:29.192Z,99.90
2019-04-27T05:06:59.218Z,99.90
2019-04-27T05:09:29.596Z,99.90
2019-04-27T05:11:58.771Z,99.90
2019-04-27T05:14:28.858Z,99.90
2019-04-27T05:16:59.217Z,99.90
2019-04-27T05:19:28.860Z,99.70
2019-04-27T05:21:59.321Z,99.40
2019-04-27T05:24:29.301Z,99.30
2019-04-27T05:26:59.066Z,99.10
2019-04-27T05:29:29.306Z,99.10
2019-04-27T05:31:59.190Z,98.70
2019-04-27T05:34:29.436Z,98.40
2019-04-27T05:36:59.319Z,98.00
2019-04-27T05:39:30.003Z,98.00
2019-04-27T05:41:59.670Z,97.70
2019-04-27T05:44:45.508Z,97.90
2019-04-27T05:47:14.348Z,97.50
2019-04-27T05:49:44.735Z,97.10
2019-04-27T05:52:29.787Z,96.90
2019-04-27T05:54:59.492Z,96.60
2019-04-27T05:57:30.810Z,96.10
2019-04-27T06:00:01.868Z,95.80
2019-04-27T06:02:30.612Z,95.40
2019-04-27T06:05:00.006Z,95.20
2019-04-27T06:07:29.770Z,94.90
2019-04-27T06:09:59.899Z,94.70
2019-04-27T06:12:29.820Z,94.50
2019-04-27T06:15:00.025Z,94.30
2019-04-27T06:17:29.874Z,94.10
2019-04-27T06:19:59.697Z,93.80
2019-04-27T06:22:29.195Z,93.50
2019-04-27T06:25:00.026Z,93.20
2019-04-27T06:27:30.813Z,93.00
2019-04-27T06:29:59.851Z,92.90
2019-04-27T06:32:29.532Z,92.20
2019-04-27T06:34:59.164Z,91.90
2019-04-27T06:37:29.298Z,91.50
2019-04-27T06:39:59.778Z,91.20
2019-04-27T06:42:29.615Z,90.80
2019-04-27T06:44:59.861Z,90.80
2019-04-27T06:47:29.474Z,90.40
2019-04-27T06:49:58.875Z,89.70
2019-04-27T06:52:29.164Z,88.50
2019-04-27T06:55:00.331Z,88.00
2019-04-27T06:57:29.256Z,86.30
2019-04-27T06:59:59.192Z,84.50
2019-04-27T07:02:29.084Z,83.70
2019-04-27T07:04:59.217Z,78.80
2019-04-27T07:07:29.439Z,75.00
2019-04-27T07:09:59.128Z,70.10
2019-04-27T07:12:28.819Z,64.10
2019-04-27T07:14:59.222Z,61.00
2019-04-27T07:17:28.957Z,58.80
2019-04-27T07:19:59.435Z,58.90
2019-04-27T07:22:29.904Z,57.50
2019-04-27T07:24:59.101Z,56.10
2019-04-27T07:27:29.130Z,55.30
2019-04-27T07:30:00.823Z,53.80
2019-04-27T07:32:29.227Z,54.90
2019-04-27T07:34:58.623Z,53.30
2019-04-27T07:37:29.248Z,53.30
2019-04-27T07:39:59.157Z,52.90
2019-04-27T07:42:30.282Z,53.90
2019-04-27T07:45:11.131Z,52.50
2019-04-27T07:47:41.538Z,53.20
2019-04-27T07:50:10.450Z,50.50
2019-04-27T07:52:40.538Z,48.30
2019-04-27T07:55:09.799Z,47.40
2019-04-27T07:57:39.965Z,46.80
2019-04-27T08:00:09.958Z,45.50
2019-04-27T08:02:39.065Z,43.70
2019-04-27T08:05:09.434Z,41.50
2019-04-27T08:07:39.168Z,40.30
2019-04-27T08:10:09.773Z,40.40
2019-04-27T08:12:38.623Z,40.40
2019-04-27T08:15:08.888Z,39.50
2019-04-27T08:17:40.249Z,40.50
2019-04-27T08:20:09.318Z,40.00
2019-04-27T08:22:38.951Z,39.30
2019-04-27T08:25:09.461Z,38.10
2019-04-27T08:27:39.417Z,37.00
2019-04-27T08:30:13.234Z,37.30
2019-04-27T08:32:43.677Z,37.20
2019-04-27T08:35:12.684Z,33.40
2019-04-27T08:37:41.491Z,34.20
2019-04-27T08:40:11.003Z,33.50
2019-04-27T08:42:39.823Z,33.40
2019-04-27T08:45:09.531Z,32.60
2019-04-27T08:47:39.439Z,31.90
2019-04-27T08:50:09.234Z,32.40
2019-04-27T08:52:39.423Z,32.10
2019-04-27T08:55:09.557Z,31.90
2019-04-27T08:57:39.594Z,31.30
2019-04-27T09:00:09.686Z,31.20
2019-04-27T09:02:44.573Z,30.10
2019-04-27T09:05:09.681Z,30.00
2019-04-27T09:07:40.267Z,29.70
2019-04-27T09:10:11.211Z,29.70
2019-04-27T09:12:59.973Z,29.90
2019-04-27T09:15:36.659Z,30.30
2019-04-27T09:18:05.466Z,30.30
2019-04-27T09:20:39.287Z,30.10
2019-04-27T09:23:09.785Z,31.20
2019-04-27T09:25:39.610Z,30.00
2019-04-27T09:28:08.860Z,29.40
2019-04-27T09:30:39.259Z,29.50
2019-04-27T09:33:08.737Z,28.50
2019-04-27T09:35:38.567Z,28.70
2019-04-27T09:38:07.578Z,28.80
2019-04-27T09:40:36.380Z,29.60
2019-04-27T09:43:05.290Z,29.90
2019-04-27T09:45:34.206Z,30.60
2019-04-27T09:48:03.216Z,30.30
2019-04-27T09:50:32.022Z,29.20
2019-04-27T09:53:01.024Z,28.80
2019-04-27T09:55:29.794Z,28.20
2019-04-27T09:57:58.633Z,27.60
2019-04-27T10:00:28.146Z,27.50
2019-04-27T10:02:57.166Z,26.90
2019-04-27T10:05:26.476Z,27.20
2019-04-27T10:07:56.937Z,27.40
2019-04-27T10:10:26.795Z,28.10
2019-04-27T10:12:56.846Z,29.30
2019-04-27T10:15:26.665Z,29.30
2019-04-27T10:17:57.576Z,29.50
2019-04-27T10:20:26.275Z,30.20
2019-04-27T10:22:56.424Z,30.30
2019-04-27T10:25:27.367Z,29.40
2019-04-27T10:27:59.344Z,29.70
2019-04-27T10:30:29.396Z,30.00
2019-04-27T10:32:59.548Z,30.70
2019-04-27T10:35:28.423Z,30.90
2019-04-27T10:37:58.249Z,30.80
2019-04-27T10:40:27.055Z,31.70
2019-04-27T10:42:56.133Z,31.90
2019-04-27T10:45:25.237Z,33.10
2019-04-27T10:47:55.789Z,35.10
2019-04-27T10:50:26.600Z,35.20
2019-04-27T10:52:58.813Z,37.40
2019-04-27T10:55:26.299Z,39.80
2019-04-27T10:57:55.434Z,41.00
2019-04-27T11:00:28.656Z,41.60
2019-04-27T11:02:58.343Z,41.90
2019-04-27T11:05:31.895Z,42.20
2019-04-27T11:08:01.109Z,42.70
2019-04-27T11:10:30.019Z,43.50
2019-04-27T11:12:58.925Z,43.30
2019-04-27T11:15:28.042Z,43.40
2019-04-27T11:17:56.945Z,42.40
2019-04-27T11:20:27.712Z,41.90
2019-04-27T11:23:06.651Z,42.10
2019-04-27T11:25:26.820Z,41.70
2019-04-27T11:27:57.667Z,41.40
2019-04-27T11:30:26.192Z,41.20
2019-04-27T11:32:59.029Z,42.40
2019-04-27T11:35:33.013Z,42.20
2019-04-27T11:38:02.025Z,42.40
2019-04-27T11:40:31.852Z,41.50
2019-04-27T11:43:00.759Z,41.60
2019-04-27T11:45:29.668Z,41.40
2019-04-27T11:47:58.784Z,40.90
2019-04-27T11:50:27.689Z,41.30
2019-04-27T11:52:56.814Z,41.60
2019-04-27T11:55:27.197Z,41.80
2019-04-27T11:57:56.259Z,41.60
2019-04-27T12:00:27.519Z,41.70
2019-04-27T12:02:56.719Z,42.40
2019-04-27T12:05:26.134Z,42.00
2019-04-27T12:07:56.127Z,42.50
2019-04-27T12:10:26.262Z,42.70
2019-04-27T12:12:56.236Z,42.70
2019-04-27T12:15:26.225Z,43.00
2019-04-27T12:17:56.155Z,43.00
2019-04-27T12:20:25.811Z,43.00
2019-04-27T12:22:54.874Z,43.20
2019-04-27T12:25:23.756Z,42.90
2019-04-27T12:27:56.964Z,42.90
2019-04-27T12:30:30.990Z,43.30
2019-04-27T12:32:59.797Z,43.20
2019-04-27T12:35:28.599Z,43.80
2019-04-27T12:37:57.507Z,44.20
2019-04-27T12:40:26.832Z,44.20
2019-04-27T12:42:56.757Z,44.50
2019-04-27T12:45:26.709Z,45.10
2019-04-27T12:47:56.634Z,44.70
2019-04-27T12:50:26.164Z,44.40
2019-04-27T12:52:56.798Z,44.60
2019-04-27T12:55:44.018Z,44.90
2019-04-27T12:58:16.297Z,45.00
2019-04-27T13:00:58.721Z,45.20
2019-04-27T13:03:27.526Z,45.10
2019-04-27T13:05:56.329Z,45.80
2019-04-27T13:08:25.993Z,46.40
2019-04-27T13:10:55.400Z,46.60
2019-04-27T13:13:26.645Z,46.80
2019-04-27T13:15:56.874Z,46.70
2019-04-27T13:18:25.937Z,47.50
2019-04-27T13:20:55.083Z,46.90
2019-04-27T13:23:24.007Z,46.60
2019-04-27T13:25:53.118Z,46.60
2019-04-27T13:28:21.921Z,47.10
2019-04-27T13:30:50.731Z,47.30
2019-04-27T13:33:19.638Z,48.30
2019-04-27T13:35:48.550Z,49.50
2019-04-27T13:38:18.132Z,50.80
2019-04-27T13:40:48.922Z,51.80
2019-04-27T13:43:34.921Z,52.20
2019-04-27T13:46:09.593Z,51.80
2019-04-27T13:48:56.582Z,51.20
2019-04-27T13:51:33.060Z,51.80
2019-04-27T13:54:14.099Z,51.90
2019-04-27T13:56:32.409Z,52.10
2019-04-27T13:59:02.892Z,52.20
2019-04-27T14:01:32.052Z,52.10
2019-04-27T14:04:00.981Z,51.90
2019-04-27T14:06:29.885Z,51.80
2019-04-27T14:08:58.907Z,51.70
2019-04-27T14:11:29.028Z,51.80
2019-04-27T14:13:58.043Z,52.20
2019-04-27T14:16:28.994Z,52.50
2019-04-27T14:18:59.322Z,52.40
2019-04-27T14:21:29.578Z,52.40
2019-04-27T14:23:58.714Z,52.50
2019-04-27T14:26:28.441Z,52.30
2019-04-27T14:28:58.380Z,52.10
2019-04-27T14:31:29.095Z,52.10
2019-04-27T14:33:58.705Z,52.50
2019-04-27T14:36:29.213Z,52.20
2019-04-27T14:38:58.791Z,52.90
2019-04-27T14:41:28.207Z,52.80
2019-04-27T14:44:07.464Z,52.90
2019-04-27T14:46:28.268Z,53.10
2019-04-27T14:48:58.512Z,53.20
2019-04-27T14:51:27.317Z,53.20
2019-04-27T14:53:56.124Z,53.60
2019-04-27T14:56:25.052Z,53.90
2019-04-27T14:58:54.433Z,54.00
2019-04-27T15:01:23.255Z,53.80
2019-04-27T15:03:52.163Z,54.00
2019-04-27T15:06:22.080Z,54.30
2019-04-27T15:08:51.105Z,54.10
2019-04-27T15:11:20.009Z,53.90
2019-04-27T15:13:51.004Z,54.00
2019-04-27T15:16:19.464Z,53.90
2019-04-27T15:18:50.137Z,54.10
2019-04-27T15:21:20.311Z,54.10
2019-04-27T15:23:49.467Z,54.40
2019-04-27T15:26:20.348Z,54.10
2019-04-27T15:28:51.155Z,54.20
2019-04-27T15:31:26.966Z,53.80
2019-04-27T15:34:13.750Z,54.10
2019-04-27T15:36:46.955Z,54.10
2019-04-27T15:39:33.664Z,53.90
2019-04-27T15:42:08.142Z,54.10
2019-04-27T15:44:36.559Z,54.20
2019-04-27T15:47:08.486Z,54.20
2019-04-27T15:49:36.065Z,54.60
2019-04-27T15:52:04.953Z,54.70
2019-04-27T15:54:33.976Z,54.90
2019-04-27T15:57:05.723Z,54.90
2019-04-27T15:59:39.412Z,55.20
2019-04-27T16:02:05.521Z,55.30
2019-04-27T16:04:34.802Z,55.50
2019-04-27T16:07:03.841Z,55.60
2019-04-27T16:09:32.644Z,55.80
2019-04-27T16:12:09.955Z,55.90
2019-04-27T16:14:31.975Z,56.00
2019-04-27T16:17:03.057Z,56.10
2019-04-27T16:19:31.344Z,56.10
2019-04-27T16:22:00.153Z,56.10
2019-04-27T16:24:29.157Z,56.10
2019-04-27T16:26:59.069Z,55.90
2019-04-27T16:29:31.561Z,56.00
2019-04-27T16:32:02.789Z,56.10
2019-04-27T16:34:32.976Z,55.90
2019-04-27T16:37:00.249Z,55.80
2019-04-27T16:39:29.158Z,55.90
2019-04-27T16:41:58.718Z,56.20
2019-04-27T16:44:29.426Z,56.40
2019-04-27T16:46:58.342Z,56.90
2019-04-27T16:49:28.918Z,56.90
2019-04-27T16:51:59.076Z,57.20
2019-04-27T16:54:28.329Z,57.10
2019-04-27T16:57:04.905Z,57.30
2019-04-27T16:59:42.657Z,57.10
2019-04-27T17:01:58.537Z,56.90
2019-04-27T17:04:29.112Z,57.00
2019-04-27T17:06:59.080Z,56.90
2019-04-27T17:09:29.211Z,56.90
2019-04-27T17:11:59.779Z,57.10
2019-04-27T17:14:42.121Z,57.20
2019-04-27T17:17:19.652Z,57.50
2019-04-27T17:19:51.919Z,58.00
2019-04-27T17:22:20.919Z,58.40
2019-04-27T17:24:49.806Z,58.70
2019-04-27T17:27:21.994Z,58.80
2019-04-27T17:29:58.239Z,59.10
2019-04-27T17:32:25.562Z,59.20
2019-04-27T17:34:55.534Z,59.30
2019-04-27T17:37:25.161Z,59.50
2019-04-27T17:39:58.070Z,59.70
2019-04-27T17:42:29.215Z,60.30
2019-04-27T17:44:57.675Z,60.70
2019-04-27T17:47:26.880Z,61.00
2019-04-27T17:49:58.268Z,61.60
2019-04-27T17:52:26.844Z,61.90
2019-04-27T17:54:55.748Z,62.50
2019-04-27T17:57:26.537Z,62.90
2019-04-27T17:59:58.896Z,63.30
2019-04-27T18:02:25.748Z,63.60
2019-04-27T18:04:54.763Z,64.10
2019-04-27T18:07:23.769Z,64.50
2019-04-27T18:09:52.676Z,65.10
2019-04-27T18:12:21.685Z,65.60
2019-04-27T18:14:50.598Z,66.20
2019-04-27T18:17:20.018Z,66.80
2019-04-27T18:19:50.457Z,67.20
2019-04-27T18:22:19.883Z,67.80
2019-04-27T18:24:55.609Z,68.60
2019-04-27T18:27:28.333Z,69.30
2019-04-27T18:29:59.352Z,70.10
2019-04-27T18:32:27.715Z,70.60
2019-04-27T18:34:58.473Z,71.40
2019-04-27T18:37:29.187Z,72.00
2019-04-27T18:39:58.498Z,72.50
2019-04-27T18:42:31.089Z,73.20
2019-04-27T18:45:06.103Z,73.80
2019-04-27T18:47:31.246Z,74.40
2019-04-27T18:50:10.877Z,74.70
2019-04-27T18:52:40.707Z,75.20
2019-04-27T18:55:11.407Z,75.70
2019-04-27T18:57:40.097Z,76.00
2019-04-27T19:00:11.359Z,76.40
2019-04-27T19:02:39.348Z,76.90
2019-04-27T19:05:09.159Z,77.50
2019-04-27T19:07:38.318Z,77.80
2019-04-27T19:10:08.930Z,77.50
2019-04-27T19:12:39.355Z,78.10
2019-04-27T19:15:08.701Z,78.70
2019-04-27T19:17:38.744Z,79.50
2019-04-27T19:20:10.450Z,80.80
2019-04-27T19:22:39.208Z,81.70
2019-04-27T19:25:10.472Z,81.80
2019-04-27T19:27:42.961Z,82.50
2019-04-27T19:30:25.665Z,82.40
2019-04-27T19:32:54.589Z,83.10
2019-04-27T19:35:23.399Z,83.60
2019-04-27T19:37:53.971Z,84.00
2019-04-27T19:40:22.950Z,84.40
2019-04-27T19:42:51.843Z,84.70
2019-04-27T19:45:21.156Z,85.20
2019-04-27T19:47:50.389Z,85.70
2019-04-27T19:50:19.368Z,86.00
2019-04-27T19:52:50.160Z,86.40
2019-04-27T19:55:19.000Z,86.60
2019-04-27T19:57:49.756Z,86.60
2019-04-27T20:00:23.738Z,86.20
2019-04-27T20:02:52.740Z,86.20
2019-04-27T20:05:21.856Z,86.20
2019-04-27T20:07:50.866Z,85.80
2019-04-27T20:10:20.285Z,85.00
2019-04-27T20:12:50.863Z,84.60
2019-04-27T20:15:19.940Z,84.90
2019-04-27T20:17:48.753Z,84.20
2019-04-27T20:20:17.652Z,84.30
2019-04-27T20:22:46.566Z,84.00
2019-04-27T20:25:15.572Z,83.60
2019-04-27T20:27:48.987Z,83.80
2019-04-27T20:30:15.469Z,83.70
2019-04-27T20:32:44.450Z,83.90
2019-04-27T20:35:13.350Z,84.20
2019-04-27T20:37:42.261Z,85.00
2019-04-27T20:40:11.754Z,84.80
2019-04-27T20:42:41.537Z,85.00
2019-04-27T20:45:12.001Z,85.30
2019-04-27T20:47:41.168Z,85.00
2019-04-27T20:50:10.209Z,84.90
2019-04-27T20:52:43.799Z,84.90
2019-04-27T20:55:13.542Z,84.50
2019-04-27T20:57:42.369Z,84.40
2019-04-27T21:00:12.356Z,84.60
2019-04-27T21:02:43.007Z,84.70
2019-04-27T21:05:25.456Z,84.50
2019-04-27T21:07:55.975Z,84.40
2019-04-27T21:10:24.876Z,83.80
2019-04-27T21:12:53.887Z,83.70
2019-04-27T21:15:22.793Z,83.30
2019-04-27T21:17:51.706Z,83.10
2019-04-27T21:20:21.889Z,83.00
2019-04-27T21:22:51.527Z,82.80
2019-04-27T21:25:21.498Z,82.70
2019-04-27T21:27:51.368Z,82.60
2019-04-27T21:30:21.338Z,82.50
2019-04-27T21:32:50.898Z,83.00
2019-04-27T21:35:21.120Z,82.00
2019-04-27T21:37:51.195Z,81.60
2019-04-27T21:40:21.903Z,81.50
2019-04-27T21:42:51.381Z,81.30
2019-04-27T21:45:21.800Z,80.90
2019-04-27T21:47:51.912Z,81.00
2019-04-27T21:50:23.204Z,80.60
2019-04-27T21:53:02.645Z,79.90
2019-04-27T21:55:33.172Z,80.40
2019-04-27T21:58:02.069Z,80.40
2019-04-27T22:00:42.808Z,80.50
2019-04-27T22:03:13.187Z,80.60
2019-04-27T22:05:42.093Z,80.80
2019-04-27T22:08:11.663Z,80.60
2019-04-27T22:10:40.829Z,80.60
2019-04-27T22:13:09.738Z,80.80
2019-04-27T22:15:38.645Z,80.60
2019-04-27T22:18:07.762Z,80.30
2019-04-27T22:20:36.871Z,80.40
2019-04-27T22:23:16.422Z,80.20
2019-04-27T22:25:45.328Z,80.10
2019-04-27T22:28:14.133Z,79.90
2019-04-27T22:30:43.044Z,79.80
2019-04-27T22:33:11.846Z,79.40
2019-04-27T22:35:41.469Z,79.00
2019-04-27T22:38:11.951Z,78.60
2019-04-27T22:40:45.734Z,78.80
2019-04-27T22:43:34.016Z,78.50
2019-04-27T22:46:04.427Z,78.30
2019-04-27T22:48:33.233Z,78.00
2019-04-27T22:51:02.141Z,77.30
2019-04-27T22:53:32.424Z,77.30
2019-04-27T22:56:18.480Z,77.60
2019-04-27T22:59:00.623Z,77.60
2019-04-27T23:01:29.602Z,77.30
2019-04-27T23:04:01.907Z,77.40
2019-04-27T23:06:30.589Z,77.70
2019-04-27T23:08:59.498Z,77.10
2019-04-27T23:11:28.304Z,77.00
2019-04-27T23:13:57.212Z,77.50
2019-04-27T23:16:27.758Z,77.10
2019-04-27T23:18:56.766Z,77.00
2019-04-27T23:21:25.570Z,77.30
2019-04-27T23:23:54.377Z,77.30
2019-04-27T23:26:23.395Z,77.50
2019-04-27T23:28:52.191Z,77.80
2019-04-27T23:31:40.701Z,77.90
2019-04-27T23:34:11.669Z,77.90
2019-04-27T23:36:42.280Z,78.30
2019-04-27T23:39:11.855Z,78.80
2019-04-27T23:41:40.889Z,78.70
2019-04-27T23:44:09.899Z,80.30
2019-04-27T23:46:38.701Z,79.50
2019-04-27T23:49:07.506Z,79.30
2019-04-27T23:51:37.949Z,80.00
2019-04-27T23:54:06.756Z,80.20
2019-04-27T23:56:35.764Z,80.00
2019-04-27T23:59:04.553Z,80.10
